Archival Weather

Tokyo Intl

Tokyo Intl, Japan (RJTT)

Report from: Friday, June 24, 2022 6:30 AM JST
Current time: Tuesday, August 16, 2022 11:04 AM JST

Current weather
Weather history
Weather forecast

Temperature25.0°C (77.0°F)
Dew point23.0°C (73.4°F)
Winds 13 kts (6.7 m/s, 15 mph) South (190°)
Visibility5 mi. (8 km)
Clouds Few clouds 300 ft. (91 m)
Ceiling: Broken clouds 700 ft. (213 m)
Altimeter29.74 in.Hg (1007 mB)
Relative humidity89 %
Density altitude1,746 ft. (532 m)
Remarks No significant changes expected in the next two hours
Flight conditions Instrument Meteorological Conditions
Raw dataRJTT 232130Z 19013KT 8000 FEW003 BKN007 25/23 Q1007 NOSIG RMK 2ST003 7ST007 A2975
An error has occurred. This application may no longer respond until reloaded. Reload 🗙